Trofeo Eurocaffè 2022

Classifica di Categoria

16/04/2022

Segnala anomalia sulla classifica

Ordine Cognome Nome Societa Tempo tot Punti Percorso
Categoria M4
1 Cannizzaro Luisiano MB Lazio 00:01:17:19.333 28.00 Percorso Over 44
2 Capuccilli Pietro Euronix Team 00:01:17:21.870 23.00 Percorso Over 44
3 Caliciotti Marco Euronix Team 00:01:17:24.078 21.00 Percorso Over 44
4 Mirtelli Angelo Vivo-MGK VIS-Dal Colle 00:01:17:26.622 19.00 Percorso Over 44
5 Desiderio Beniamino Team Giannini 00:01:17:28.211 17.00 Percorso Over 44
6 Paoli Daniele Redingò Sport Team 00:01:19:00.063 15.00 Percorso Over 44
7 Avolio Alessandro CPS Professional Team 00:01:20:23.255 13.00 Percorso Over 44
8 Melluso Gianluca Team Falco 00:01:20:28.599 11.00 Percorso Over 44
9 Greco Francesco Team Magnum 00:01:20:30.081 9.00 Percorso Over 44
10 Riccitiello Gabriele Euronix Team 00:01:20:32.678 8.00 Percorso Over 44
11 Garofalo Massimo Usc Team Nardecchia-Montini 00:01:20:53.080 6.00 Percorso Over 44
12 Maiello Carmine Amici Del Pedale 00:01:20:55.198 6.00 Percorso Over 44
13 Galbiati Pasquale Team Amoruso 00:01:20:59.728 6.00 Percorso Over 44
14 Bo Enzo Figli Del Vento 00:01:21:05.422 6.00 Percorso Over 44
15 Baccaro Giuseppe Twentytwo Factory Team 00:01:21:36.646 6.00 Percorso Over 44
16 Sellitto Biagio Team Falco 00:01:21:46.454 6.00 Percorso Over 44
17 Linari Umberto SSD Meeting Club 00:01:22:36.030 6.00 Percorso Over 44
Categoria M5
1 Gallo Franco Team Magnum 00:01:17:30.207 28.00 Percorso Over 44
2 Calvano Angelo Un Giro In Meno 00:01:17:32.663 23.00 Percorso Over 44
3 Costa Massimo MB Lazio 00:01:18:46.055 21.00 Percorso Over 44
4 Cappelli Ennio Un Giro In Meno 00:01:18:53.223 19.00 Percorso Over 44
5 Nicoletti Emiliano Roccasecca Bike 00:01:18:57.687 17.00 Percorso Over 44
6 Pintauro Giuseppe Team Falco 00:01:19:02.423 15.00 Percorso Over 44
7 Ottaviano Fabio Euronix Team 00:01:19:08.361 13.00 Percorso Over 44
8 Cozzolino Giovanni Dogma Bike 00:01:20:34.871 11.00 Percorso Over 44
9 Gargari Mariano Redingò Sport Team 00:01:20:44.638 9.00 Percorso Over 44
10 Gigante Aniello Murolo Costruzioni - SL2 00:01:20:49.199 8.00 Percorso Over 44
11 Ruggiero Giuseppe Team Magnum 00:01:20:51.231 6.00 Percorso Over 44
12 Iacurti Rosario Figli Del Vento 00:01:21:01.179 6.00 Percorso Over 44
13 Biasielli Costanzo Sei Impianti 00:01:21:07.702 6.00 Percorso Over 44
14 Bardellino Antonio Team Giannini 00:01:21:14.495 6.00 Percorso Over 44
15 Scappaticci Giulio MB Lazio 00:01:21:16.598 6.00 Percorso Over 44
16 Lombardi Arnaldo MB Lazio 00:01:21:51.076 6.00 Percorso Over 44
17 Maenza Angelo Un Giro In Meno 00:01:21:53.318 6.00 Percorso Over 44
18 Tonelli Lorenzo Team Falasca 00:01:22:41.358 6.00 Percorso Over 44
19 Colafigli Massimiliano Petit Velo 00:01:22:50.367 6.00 Percorso Over 44
20 Severa Marco Euronix Team 00:01:25:35.191 6.00 Percorso Over 44
21 Pisani Emanuele MB Lazio 00:01:25:37.011 6.00 Percorso Over 44
22 Mango Mario Libero Mastantuoni Sport 1950 00:01:25:41.374 6.00 Percorso Over 44
Categoria M6
1 Monaco Alfonso Team Falco 00:01:17:34.871 28.00 Percorso Over 44
2 Bottone Donato Euronix Team 00:01:18:49.366 23.00 Percorso Over 44
3 Cancanelli Roberto MB Lazio 00:01:18:50.962 21.00 Percorso Over 44
4 Tesone Raffaele Ianniello Team 00:01:18:55.615 19.00 Percorso Over 44
5 Ceccacci Tommaso Roccasecca Bike 00:01:19:03.859 17.00 Percorso Over 44
6 Frattulillo Antonio Team Luxor 00:01:20:23.254 15.00 Percorso Over 44
7 Ciccone Gioacchino Amici Del Pedale 00:01:20:37.343 13.00 Percorso Over 44
8 Quattrini Mario Fiormonti Team 00:01:20:46.847 11.00 Percorso Over 44
9 D'Ambrosio Alessandro Team Falasca 00:01:21:21.798 9.00 Percorso Over 44
10 Morzillo Giovanni GSC Moiano BN 00:01:21:49.182 8.00 Percorso Over 44
11 Tosini Luigi M9 RACING TEAM 00:01:22:17.294 6.00 Percorso Over 44
12 Amoruso Ferdinando Team Amoruso 00:01:22:50.366 6.00 Percorso Over 44
Categoria M7_8
1 Fogli Lido Conti D'Angeli 00:01:19:06.135 28.00 Percorso Over 44
2 Sordillo Fernando Civitas 00:01:20:26.102 23.00 Percorso Over 44
3 Tartaglia Massimo Usc Team Nardecchia-Montini 00:01:21:03.759 21.00 Percorso Over 44
4 Fioramonti Patrizio MB Lazio 00:01:21:24.039 19.00 Percorso Over 44
5 Mandatori Alessandro Euronix Team 00:01:22:30.042 17.00 Percorso Over 44
6 Galbiati Vincenzo Team Amoruso 00:01:25:39.619 15.00 Percorso Over 44
Categoria 2P
1 Murro Mirco Roccasecca Bike 00:01:20:39.807 28.00 Percorso Over 44
2 D'Agostino Emiliano Bikers Casalvieri 00:01:20:42.375 23.00 Percorso Over 44
3 Martinelli Cristian Devid Sgauzzoni Aprilia 00:01:20:59.727 21.00 Percorso Over 44
4 Chiappini Fabrizio Roccasecca Bike 00:01:21:19.510 19.00 Percorso Over 44
5 Vitale Gennaro Team Falco 00:01:21:29.399 17.00 Percorso Over 44
6 Vozza Marco Bikers Casalvieri 00:01:21:31.894 15.00 Percorso Over 44
7 Matteo Vincenzo Team Falasca 00:01:21:39.246 13.00 Percorso Over 44
8 Capasso Rocco Team Di Micco Lab 00:01:21:41.910 11.00 Percorso Over 44
9 Bono Francesco Nino MB Lazio 00:01:21:55.510 9.00 Percorso Over 44
10 Ferraiuolo Michele Caserta Bike 00:01:22:26.367 8.00 Percorso Over 44
11 Savo Felice Ciclistica Ciociara 00:01:22:33.364 6.00 Percorso Over 44
12 Iorio Roberto Sei Impianti 00:01:22:44.798 6.00 Percorso Over 44
13 Salsano Gianluca SC Marcianise 00:01:22:47.842 6.00 Percorso Over 44
Categoria 3P
1 Monaco Carlo Team Falco 00:01:21:10.086 28.00 Percorso Over 44
2 Grancagnolo Giovanni Victours Bike 00:01:21:12.238 23.00 Percorso Over 44
3 Mattia Paolo Roccasecca Bike 00:01:21:26.878 21.00 Percorso Over 44
4 Siano Raffaele Ciclistica Venafro 00:01:21:34.056 19.00 Percorso Over 44
5 Salati Angelo Art Bike 2016 00:01:21:44.504 17.00 Percorso Over 44
6 Spadaro Luigi MB Lazio 00:01:21:57.838 15.00 Percorso Over 44
7 Parolisi Antonio Ciclistica Ciociara 00:01:22:00.708 13.00 Percorso Over 44
8 Miele Gianfranco Victours Bike 00:01:22:04.190 11.00 Percorso Over 44
9 Ciccone Giuseppe Amici Del Pedale 00:01:22:39.072 9.00 Percorso Over 44
Categoria ES
1 Quagliozzi Cristian Sei Impianti 00:01:46:48.596 28.00 Percorso Under 44
2 Quattrini Luca Fiormonti Team 00:01:46:56.172 23.00 Percorso Under 44
3 Barone Lorenzo Erreclima - Professional Cycling 00:01:50:32.315 21.00 Percorso Under 44
4 De Santis Matteo MB Lazio 00:01:52:05.445 19.00 Percorso Under 44
5 Gentile Francesco Twentytwo Factory Team 00:01:52:30.077 17.00 Percorso Under 44
6 De Gasperis Francesco MB Lazio 00:01:53:03.172 15.00 Percorso Under 44
Categoria M1
1 Ambra Luigi Euronix Team 00:01:46:29.660 28.00 Percorso Under 44
2 Diomedi Alessandro Team Specialized 00:01:47:02.029 23.00 Percorso Under 44
3 Esposito Alaia Luigi Bollino team 00:01:50:05.285 21.00 Percorso Under 44
4 Sivo Marco Twentytwo Factory Team 00:01:50:24.037 19.00 Percorso Under 44
5 Schiavone Giuseppe Team Giannini 00:01:50:51.069 17.00 Percorso Under 44
6 Del Sesto Angelo MB Lazio 00:01:51:43.453 15.00 Percorso Under 44
7 Asci Maurizio Bar Bova Officina Alimentare 00:01:51:46.301 13.00 Percorso Under 44
8 Orefice Antonio Team Magnum 00:01:51:50.765 11.00 Percorso Under 44
9 Iannacone Alessandro Euronix Team 00:01:52:27.396 9.00 Percorso Under 44
10 Marino Armando Cantone Bike 00:01:52:41.628 8.00 Percorso Under 44
Categoria M2
1 Zampilli Rino Euronix Team 00:01:46:33.709 28.00 Percorso Under 44
2 Rinicella Giovanni AP07 CCR-Cicli Rossi 00:01:46:36.172 23.00 Percorso Under 44
3 Ventrucci Lino Cantone Bike 00:01:46:36.173 21.00 Percorso Under 44
4 Trovarelli Fabrizio Bike Lab - Team Astolfi 00:01:46:45.940 19.00 Percorso Under 44
5 Di Fazio Marco MB Lazio 00:01:46:50.357 17.00 Percorso Under 44
6 Di Vasto Roberto Twentytwo Factory Team 00:01:50:03.117 15.00 Percorso Under 44
7 Borsella Angelo Figli Del Vento 00:01:50:06.861 13.00 Percorso Under 44
8 Mastropaolo Simone MB Lazio 00:01:50:09.669 11.00 Percorso Under 44
9 Langella Michele Team Vesuvio and Bike 00:01:50:14.701 9.00 Percorso Under 44
10 Lanni Fabrizio MB Lazio 00:01:50:16.748 8.00 Percorso Under 44
11 Iasevoli Carmine ASD Vesuviani 00:01:50:19.109 6.00 Percorso Under 44
12 Cavaricci Michele Anagni Ciclismo 00:01:50:47.445 6.00 Percorso Under 44
13 Vessella Emanuele Team Momo Bikers 00:01:50:53.446 6.00 Percorso Under 44
14 Chiusolo Alessandro Team Vesuvio and Bike 00:01:50:53.447 6.00 Percorso Under 44
15 Colone Davide Erreclima - Professional Cycling 00:01:51:15.685 6.00 Percorso Under 44
16 Gargano Alex MB Lazio 00:01:51:26.413 6.00 Percorso Under 44
17 Mantua Claudio Anagni Ciclismo 00:01:51:37.901 6.00 Percorso Under 44
18 Tudino Cristian Roccasecca Bike 00:01:51:40.565 6.00 Percorso Under 44
19 Farina Marco MB Lazio 00:01:51:54.300 6.00 Percorso Under 44
20 Di Giorgio Alberto Pontebikecorvo 00:01:51:57.131 6.00 Percorso Under 44
21 Milite Romeo Ianniello Team 00:01:52:00.165 6.00 Percorso Under 44
22 Bianzarelli Ivan Pontebikecorvo 00:01:52:11.300 6.00 Percorso Under 44
23 Belli Fabrizio MB Lazio 00:01:52:19.245 6.00 Percorso Under 44
24 D'Angelo Luca Pianura Cycling 00:01:52:22.317 6.00 Percorso Under 44
25 Pizzella Vincenzo I Love MTB Torre Del Greco 00:01:52:25.269 6.00 Percorso Under 44
26 Palumbo Pasquale Veloclub Ventocontrario 00:01:52:35.134 6.00 Percorso Under 44
27 Del Prete Massimiliano Euronix Team 00:01:52:47.133 6.00 Percorso Under 44
28 Carcasole Giuseppe Unitec Cycling Team 00:01:52:55.101 6.00 Percorso Under 44
29 Molle Roberto MB Lazio 00:01:53:05.381 6.00 Percorso Under 44
Categoria M3
1 Zaottini Sergio Euronix Team 00:01:46:23.717 28.00 Percorso Under 44
2 Pinchieri Giovanni Sei Impianti 00:01:46:52.917 23.00 Percorso Under 44
3 Aliberti Andrea Erreclima - Professional Cycling 00:01:46:59.188 21.00 Percorso Under 44
4 Buonanno Nicola Twentytwo Factory Team 00:01:48:32.397 19.00 Percorso Under 44
5 Tranzillo Giuseppe Team Luxor 00:01:50:11.901 17.00 Percorso Under 44
6 Astolfi Claudio Bike Lab - Team Astolfi 00:01:50:21.621 15.00 Percorso Under 44
7 Caliciotti Giandomenico Mtb Ruote Matte Ceccano 00:01:50:27.277 13.00 Percorso Under 44
8 Iarriccio Cristian CPS Professional Team 00:01:50:37.620 11.00 Percorso Under 44
9 Del Prete Gaetano Euronix Team 00:01:50:40.038 9.00 Percorso Under 44
10 Perna Antonio I Love MTB Torre Del Greco 00:01:51:02.765 8.00 Percorso Under 44
11 Gargiulo Elio MB Lazio 00:01:51:02.766 6.00 Percorso Under 44
12 Marulli Carmine Extreme Team Casauria 00:01:51:21.725 6.00 Percorso Under 44
13 Evangelista Mario Torremaggiore Bike 00:01:51:24.390 6.00 Percorso Under 44
14 Bettini Paolo Figli Del Vento 00:01:51:34.422 6.00 Percorso Under 44
15 Cavaricci Daniele Bike Lab - Team Astolfi 00:01:51:48.718 6.00 Percorso Under 44
16 Martini Domenico MB Lazio 00:01:52:15.699 6.00 Percorso Under 44
17 Tartaglia Samuel ProCycling Promotech 00:01:52:33.556 6.00 Percorso Under 44
18 Riccardi Marcello Squadra Odyssey 00:01:52:50.148 6.00 Percorso Under 44
19 Buonincontro Ciro Euronix Team 00:01:52:52.476 6.00 Percorso Under 44
20 Orcame Fabio Vivo-MGK VIS-Dal Colle 00:01:53:00.773 6.00 Percorso Under 44
21 Rossini Gianpaolo Sei Impianti 00:01:53:08.101 6.00 Percorso Under 44
22 Coletta Gianluca Erreclima - Professional Cycling 00:01:53:10.198 6.00 Percorso Under 44
Categoria 1P
1 Russo Vincenzo Caserta Bike 00:01:47:04.732 28.00 Percorso Under 44
2 Coppotelli Gianmarco Mtb Ruote Matte Ceccano 00:01:48:28.142 23.00 Percorso Under 44
3 Duca Alessandro AP07 CCR-Cicli Rossi 00:01:48:49.805 21.00 Percorso Under 44
4 Rotondi Leandro Amaseno Bike San Pio 00:01:50:00.470 19.00 Percorso Under 44
5 Pezzella Nicola Team Magnum 00:01:50:29.941 17.00 Percorso Under 44
6 Tramontozzi Donato Bikers Casalvieri 00:01:51:00.901 15.00 Percorso Under 44
7 Evangelista Michele Erreclima - Professional Cycling 00:01:51:06.205 13.00 Percorso Under 44
8 Annunziata Alfonso Dogma Bike 00:01:51:19.061 11.00 Percorso Under 44
9 Raia Lorenzo Erreclima - Professional Cycling 00:01:51:31.885 9.00 Percorso Under 44
10 Spiridigliozzi Costanzo Sei Impianti 00:01:52:03.621 8.00 Percorso Under 44
11 Antonucci Stefano MB Lazio 00:01:52:08.165 6.00 Percorso Under 44
12 Tramontozzi Francesco Bikers Casalvieri 00:01:52:13.901 6.00 Percorso Under 44
13 Maiorani Giulio Un Giro In Meno 00:01:52:37.901 6.00 Percorso Under 44
14 Ciarloni Leonardo Cicli Castellaccio 00:01:52:45.004 6.00 Percorso Under 44
Richiedi Assistenza